Northfield, MN

3:35 AM CDT on August 29, 2015 (GMT -0500)
Downtown Northfield - KYMN Radio | | Change Station
CLOSE
Current Station
Personal Weather Station
Location: Northfield, MN
Elevation: 902 ft
Nearby Weather Stations

Elev 902 ft 44.46 °N, 93.16 °W | Updated 3 minutes ago

Partly Cloudy
Partly Cloudy
54.3 °F
Feels Like 54.3 °F
N
0.0
Wind Variable Wind from East

Today
High -- | Low -- °F
--% Chance of Precip.
Yesterday
High -- | Low -- °F
Precip. -- in
6:31 AM 7:54 PM
Full, 100% visible
Pressure 30.01 in
Visibility 2.0 miles
Clouds Mostly Cloudy 1100 ft
Overcast 1500 ft
Dew Point 53 °F
Humidity 95%
Rainfall 0.00 in
Snow Depth Not available.
UV 0 out of 12
Pollen 1.00 out of 12
Air Quality Not available.
Flu Activity Not available.
METAR KSYN 290813Z AUTO 00000KT 2SM BR BKN011 OVC015 12/11 A3001 RMK AO2 T01190109
Pressure 30.01 in
Visibility 2.0 miles
Clouds Mostly Cloudy 1100 ft
Overcast 1500 ft
Dew Point 53 °F
Humidity 95%
Rainfall 0.00 in
Snow Depth Not available.
UV 0 out of 12
Pollen 1.00 out of 12
Air Quality Not available.
Flu Activity Not available.
METAR KSYN 290813Z AUTO 00000KT 2SM BR BKN011 OVC015 12/11 A3001 RMK AO2 T01190109

10-Day Weather Forecast

×

Almanac

Astronomy

Aug. 29, 2015 Rise Set
Actual Time
Civil Twilight
Nautical Twilight
Astronomical Twilight
Moon
Length of Visible Light
Length of Day
Tomorrow will be .
, % of the Moon is Illuminated

Today's Extremes

State Highs State Lows

Community

WunderPhotos

Upload Photos

1,850,634 photos uploaded!

WunderBlogs® & News

Nearby

Air Quality

  Air Quality AQ Index Pollutant
Not available.

Snow Depth

Station Depth Elevation

Earthquake Activity

City Distance Mag. Time & Date
Minimum magnitude displayed is 2.5.

Coastal Water Temperatures

Place Temperature

Stations

Nearby Weather Stations

Station Location Temp. Windchill Dew Point Humidity Wind Precip. Elev Updated Type